sensor_id;sensor_type;location;lat;lon;timestamp;P1;durP1;ratioP1;P2;durP2;ratioP2
66342;SDS011;53144;51.524;5.080;2024-01-11T00:01:47;19.10;;;11.93;;
66342;SDS011;53144;51.524;5.080;2024-01-11T00:04:16;21.20;;;11.30;;
66342;SDS011;53144;51.524;5.080;2024-01-11T00:06:42;25.30;;;10.98;;
66342;SDS011;53144;51.524;5.080;2024-01-11T00:09:08;19.67;;;10.38;;
66342;SDS011;53144;51.524;5.080;2024-01-11T00:11:33;17.13;;;10.77;;
66342;SDS011;53144;51.524;5.080;2024-01-11T00:13:59;19.57;;;11.47;;
66342;SDS011;53144;51.524;5.080;2024-01-11T00:16:24;21.23;;;11.83;;
66342;SDS011;53144;51.524;5.080;2024-01-11T00:18:49;17.95;;;10.68;;
66342;SDS011;53144;51.524;5.080;2024-01-11T00:21:15;20.10;;;11.10;;
66342;SDS011;53144;51.524;5.080;2024-01-11T00:23:40;22.45;;;10.80;;
66342;SDS011;53144;51.524;5.080;2024-01-11T00:26:06;19.50;;;11.57;;
66342;SDS011;53144;51.524;5.080;2024-01-11T00:28:31;16.95;;;10.32;;
66342;SDS011;53144;51.524;5.080;2024-01-11T00:30:57;16.90;;;9.50;;
66342;SDS011;53144;51.524;5.080;2024-01-11T00:33:22;19.13;;;10.80;;
66342;SDS011;53144;51.524;5.080;2024-01-11T00:35:47;30.00;;;11.63;;
66342;SDS011;53144;51.524;5.080;2024-01-11T00:38:16;19.98;;;11.48;;
66342;SDS011;53144;51.524;5.080;2024-01-11T00:40:41;17.65;;;11.07;;
66342;SDS011;53144;51.524;5.080;2024-01-11T00:43:06;24.23;;;11.43;;
66342;SDS011;53144;51.524;5.080;2024-01-11T00:45:32;21.80;;;11.07;;
66342;SDS011;53144;51.524;5.080;2024-01-11T00:47:57;24.00;;;11.60;;
66342;SDS011;53144;51.524;5.080;2024-01-11T00:50:23;20.37;;;11.70;;
66342;SDS011;53144;51.524;5.080;2024-01-11T00:52:48;20.60;;;10.63;;
66342;SDS011;53144;51.524;5.080;2024-01-11T00:55:14;23.77;;;11.52;;
66342;SDS011;53144;51.524;5.080;2024-01-11T00:57:41;20.25;;;11.07;;
66342;SDS011;53144;51.524;5.080;2024-01-11T01:00:07;19.45;;;10.98;;
66342;SDS011;53144;51.524;5.080;2024-01-11T01:04:58;20.20;;;10.80;;
66342;SDS011;53144;51.524;5.080;2024-01-11T01:07:23;17.95;;;10.10;;
66342;SDS011;53144;51.524;5.080;2024-01-11T01:09:49;17.35;;;10.75;;
66342;SDS011;53144;51.524;5.080;2024-01-11T01:12:15;24.20;;;12.60;;
66342;SDS011;53144;51.524;5.080;2024-01-11T01:14:40;19.15;;;10.48;;
66342;SDS011;53144;51.524;5.080;2024-01-11T01:17:06;21.55;;;11.88;;
66342;SDS011;53144;51.524;5.080;2024-01-11T01:19:31;20.48;;;10.75;;
66342;SDS011;53144;51.524;5.080;2024-01-11T01:28:07;19.10;;;10.52;;
66342;SDS011;53144;51.524;5.080;2024-01-11T01:30:33;18.98;;;11.05;;
66342;SDS011;53144;51.524;5.080;2024-01-11T01:32:58;23.00;;;11.77;;
66342;SDS011;53144;51.524;5.080;2024-01-11T01:35:24;21.80;;;12.13;;
66342;SDS011;53144;51.524;5.080;2024-01-11T01:37:49;20.80;;;11.85;;
66342;SDS011;53144;51.524;5.080;2024-01-11T01:40:15;22.23;;;10.45;;
66342;SDS011;53144;51.524;5.080;2024-01-11T01:42:41;20.83;;;10.93;;
66342;SDS011;53144;51.524;5.080;2024-01-11T01:45:10;20.00;;;11.82;;
66342;SDS011;53144;51.524;5.080;2024-01-11T01:47:36;19.88;;;11.25;;
66342;SDS011;53144;51.524;5.080;2024-01-11T01:50:02;19.08;;;11.00;;
66342;SDS011;53144;51.524;5.080;2024-01-11T01:52:29;21.20;;;11.73;;
66342;SDS011;53144;51.524;5.080;2024-01-11T01:54:55;21.65;;;11.90;;
66342;SDS011;53144;51.524;5.080;2024-01-11T01:57:23;21.77;;;12.57;;
66342;SDS011;53144;51.524;5.080;2024-01-11T01:59:50;21.67;;;10.73;;
66342;SDS011;53144;51.524;5.080;2024-01-11T02:02:18;25.25;;;12.30;;
66342;SDS011;53144;51.524;5.080;2024-01-11T02:04:44;18.92;;;11.32;;
66342;SDS011;53144;51.524;5.080;2024-01-11T02:07:10;22.08;;;11.00;;
66342;SDS011;53144;51.524;5.080;2024-01-11T02:09:36;22.90;;;12.73;;
66342;SDS011;53144;51.524;5.080;2024-01-11T02:12:02;15.50;;;9.60;;
66342;SDS011;53144;51.524;5.080;2024-01-11T02:14:28;21.63;;;12.05;;
66342;SDS011;53144;51.524;5.080;2024-01-11T02:16:54;24.15;;;12.23;;
66342;SDS011;53144;51.524;5.080;2024-01-11T02:19:19;22.00;;;11.85;;
66342;SDS011;53144;51.524;5.080;2024-01-11T02:21:46;24.13;;;12.27;;
66342;SDS011;53144;51.524;5.080;2024-01-11T02:24:38;21.25;;;11.23;;
66342;SDS011;53144;51.524;5.080;2024-01-11T02:27:04;21.20;;;11.88;;
66342;SDS011;53144;51.524;5.080;2024-01-11T02:29:30;21.80;;;12.18;;
66342;SDS011;53144;51.524;5.080;2024-01-11T02:34:25;19.00;;;10.82;;
66342;SDS011;53144;51.524;5.080;2024-01-11T02:36:52;21.00;;;11.35;;
66342;SDS011;53144;51.524;5.080;2024-01-11T02:39:37;20.40;;;11.55;;
66342;SDS011;53144;51.524;5.080;2024-01-11T02:42:03;20.77;;;10.82;;
66342;SDS011;53144;51.524;5.080;2024-01-11T02:44:29;20.35;;;10.40;;
66342;SDS011;53144;51.524;5.080;2024-01-11T02:46:54;25.65;;;11.60;;
66342;SDS011;53144;51.524;5.080;2024-01-11T02:49:20;23.52;;;11.38;;
66342;SDS011;53144;51.524;5.080;2024-01-11T02:51:45;21.33;;;12.80;;
66342;SDS011;53144;51.524;5.080;2024-01-11T02:54:11;19.85;;;10.50;;
66342;SDS011;53144;51.524;5.080;2024-01-11T02:56:36;21.73;;;11.48;;
66342;SDS011;53144;51.524;5.080;2024-01-11T02:59:02;21.75;;;11.77;;
66342;SDS011;53144;51.524;5.080;2024-01-11T03:01:27;23.23;;;11.85;;
66342;SDS011;53144;51.524;5.080;2024-01-11T03:03:53;22.17;;;13.07;;
66342;SDS011;53144;51.524;5.080;2024-01-11T03:06:19;18.83;;;11.82;;
66342;SDS011;53144;51.524;5.080;2024-01-11T03:08:47;26.67;;;13.20;;
66342;SDS011;53144;51.524;5.080;2024-01-11T03:11:37;20.25;;;10.75;;
66342;SDS011;53144;51.524;5.080;2024-01-11T03:14:28;21.88;;;11.80;;
66342;SDS011;53144;51.524;5.080;2024-01-11T03:17:19;23.73;;;10.90;;
66342;SDS011;53144;51.524;5.080;2024-01-11T03:20:09;21.05;;;10.82;;
66342;SDS011;53144;51.524;5.080;2024-01-11T03:25:25;21.85;;;12.10;;
66342;SDS011;53144;51.524;5.080;2024-01-11T03:27:50;20.87;;;11.83;;
66342;SDS011;53144;51.524;5.080;2024-01-11T03:30:16;18.35;;;10.43;;
66342;SDS011;53144;51.524;5.080;2024-01-11T03:32:41;22.67;;;12.20;;
66342;SDS011;53144;51.524;5.080;2024-01-11T03:35:07;21.75;;;12.10;;
66342;SDS011;53144;51.524;5.080;2024-01-11T03:37:33;23.50;;;12.40;;
66342;SDS011;53144;51.524;5.080;2024-01-11T03:40:00;27.33;;;12.45;;
66342;SDS011;53144;51.524;5.080;2024-01-11T03:42:25;20.70;;;11.93;;
66342;SDS011;53144;51.524;5.080;2024-01-11T03:44:51;23.70;;;11.32;;
66342;SDS011;53144;51.524;5.080;2024-01-11T03:47:16;19.55;;;11.20;;
66342;SDS011;53144;51.524;5.080;2024-01-11T03:49:42;18.55;;;12.18;;
66342;SDS011;53144;51.524;5.080;2024-01-11T03:52:07;17.33;;;9.53;;
66342;SDS011;53144;51.524;5.080;2024-01-11T03:54:33;18.88;;;10.63;;
66342;SDS011;53144;51.524;5.080;2024-01-11T03:56:58;20.50;;;10.75;;
66342;SDS011;53144;51.524;5.080;2024-01-11T03:59:24;19.63;;;11.10;;
66342;SDS011;53144;51.524;5.080;2024-01-11T04:01:49;19.88;;;11.18;;
66342;SDS011;53144;51.524;5.080;2024-01-11T04:04:15;18.20;;;9.50;;
66342;SDS011;53144;51.524;5.080;2024-01-11T04:06:40;19.17;;;10.80;;
66342;SDS011;53144;51.524;5.080;2024-01-11T04:09:05;20.60;;;10.30;;
66342;SDS011;53144;51.524;5.080;2024-01-11T04:11:31;19.13;;;10.73;;
66342;SDS011;53144;51.524;5.080;2024-01-11T04:13:56;19.25;;;11.13;;
66342;SDS011;53144;51.524;5.080;2024-01-11T04:16:22;18.25;;;10.82;;
66342;SDS011;53144;51.524;5.080;2024-01-11T04:18:47;17.00;;;10.35;;
66342;SDS011;53144;51.524;5.080;2024-01-11T04:21:24;18.25;;;9.82;;
66342;SDS011;53144;51.524;5.080;2024-01-11T04:23:53;20.60;;;9.52;;
66342;SDS011;53144;51.524;5.080;2024-01-11T04:26:19;10.30;;;7.57;;
66342;SDS011;53144;51.524;5.080;2024-01-11T04:28:45;13.27;;;7.95;;
66342;SDS011;53144;51.524;5.080;2024-01-11T04:31:12;11.70;;;8.85;;
66342;SDS011;53144;51.524;5.080;2024-01-11T04:33:44;17.65;;;10.20;;
66342;SDS011;53144;51.524;5.080;2024-01-11T04:36:10;17.10;;;9.95;;
66342;SDS011;53144;51.524;5.080;2024-01-11T04:38:37;13.18;;;8.55;;
66342;SDS011;53144;51.524;5.080;2024-01-11T04:41:12;17.15;;;9.82;;
66342;SDS011;53144;51.524;5.080;2024-01-11T04:43:43;18.65;;;10.57;;
66342;SDS011;53144;51.524;5.080;2024-01-11T04:46:15;16.98;;;10.15;;
66342;SDS011;53144;51.524;5.080;2024-01-11T04:48:45;15.68;;;9.32;;
66342;SDS011;53144;51.524;5.080;2024-01-11T04:53:39;19.52;;;9.70;;
66342;SDS011;53144;51.524;5.080;2024-01-11T04:56:06;16.80;;;9.05;;
66342;SDS011;53144;51.524;5.080;2024-01-11T04:58:32;22.08;;;10.57;;
66342;SDS011;53144;51.524;5.080;2024-01-11T05:00:58;21.48;;;9.73;;
66342;SDS011;53144;51.524;5.080;2024-01-11T05:03:23;18.83;;;10.65;;
66342;SDS011;53144;51.524;5.080;2024-01-11T05:05:49;16.75;;;9.65;;
66342;SDS011;53144;51.524;5.080;2024-01-11T05:08:14;15.80;;;9.13;;
66342;SDS011;53144;51.524;5.080;2024-01-11T05:10:39;16.83;;;9.90;;
66342;SDS011;53144;51.524;5.080;2024-01-11T05:13:05;20.85;;;7.70;;
66342;SDS011;53144;51.524;5.080;2024-01-11T05:15:30;16.63;;;9.35;;
66342;SDS011;53144;51.524;5.080;2024-01-11T05:17:56;15.17;;;9.47;;
66342;SDS011;53144;51.524;5.080;2024-01-11T05:20:22;14.35;;;8.95;;
66342;SDS011;53144;51.524;5.080;2024-01-11T05:22:47;18.25;;;10.02;;
66342;SDS011;53144;51.524;5.080;2024-01-11T05:25:38;19.27;;;9.65;;
66342;SDS011;53144;51.524;5.080;2024-01-11T05:28:29;17.80;;;9.77;;
66342;SDS011;53144;51.524;5.080;2024-01-11T05:30:56;20.27;;;9.73;;
66342;SDS011;53144;51.524;5.080;2024-01-11T05:33:21;16.83;;;9.93;;
66342;SDS011;53144;51.524;5.080;2024-01-11T05:35:46;17.13;;;10.20;;
66342;SDS011;53144;51.524;5.080;2024-01-11T05:38:12;14.80;;;8.80;;
66342;SDS011;53144;51.524;5.080;2024-01-11T05:40:37;16.17;;;9.18;;
66342;SDS011;53144;51.524;5.080;2024-01-11T05:43:03;16.45;;;9.95;;
66342;SDS011;53144;51.524;5.080;2024-01-11T05:45:28;17.27;;;9.60;;
66342;SDS011;53144;51.524;5.080;2024-01-11T05:47:54;13.80;;;9.32;;
66342;SDS011;53144;51.524;5.080;2024-01-11T05:50:19;16.77;;;8.77;;
66342;SDS011;53144;51.524;5.080;2024-01-11T05:52:45;18.15;;;10.23;;
66342;SDS011;53144;51.524;5.080;2024-01-11T05:55:10;11.35;;;6.82;;
66342;SDS011;53144;51.524;5.080;2024-01-11T05:57:36;19.10;;;9.45;;
66342;SDS011;53144;51.524;5.080;2024-01-11T06:00:01;14.27;;;8.63;;
66342;SDS011;53144;51.524;5.080;2024-01-11T06:02:27;16.02;;;8.52;;
66342;SDS011;53144;51.524;5.080;2024-01-11T06:04:52;10.95;;;7.88;;
66342;SDS011;53144;51.524;5.080;2024-01-11T06:07:21;12.40;;;8.00;;
66342;SDS011;53144;51.524;5.080;2024-01-11T06:09:46;13.07;;;8.82;;
66342;SDS011;53144;51.524;5.080;2024-01-11T06:12:12;17.38;;;8.45;;
66342;SDS011;53144;51.524;5.080;2024-01-11T06:14:38;11.20;;;7.40;;
66342;SDS011;53144;51.524;5.080;2024-01-11T06:17:04;15.05;;;8.73;;
66342;SDS011;53144;51.524;5.080;2024-01-11T06:19:29;17.52;;;8.70;;
66342;SDS011;53144;51.524;5.080;2024-01-11T06:21:55;16.00;;;8.98;;
66342;SDS011;53144;51.524;5.080;2024-01-11T06:30:58;13.90;;;7.72;;
66342;SDS011;53144;51.524;5.080;2024-01-11T06:33:23;16.58;;;8.60;;
66342;SDS011;53144;51.524;5.080;2024-01-11T06:35:49;15.68;;;9.05;;
66342;SDS011;53144;51.524;5.080;2024-01-11T06:38:14;15.48;;;8.60;;
66342;SDS011;53144;51.524;5.080;2024-01-11T06:40:40;14.68;;;8.85;;
66342;SDS011;53144;51.524;5.080;2024-01-11T06:43:05;12.18;;;7.85;;
66342;SDS011;53144;51.524;5.080;2024-01-11T06:45:31;16.20;;;8.88;;
66342;SDS011;53144;51.524;5.080;2024-01-11T06:47:56;14.05;;;8.57;;
66342;SDS011;53144;51.524;5.080;2024-01-11T06:50:22;14.50;;;9.10;;
66342;SDS011;53144;51.524;5.080;2024-01-11T06:52:47;17.15;;;8.90;;
66342;SDS011;53144;51.524;5.080;2024-01-11T06:55:12;11.38;;;7.53;;
66342;SDS011;53144;51.524;5.080;2024-01-11T06:57:38;10.63;;;7.40;;
66342;SDS011;53144;51.524;5.080;2024-01-11T07:00:03;14.80;;;8.52;;
66342;SDS011;53144;51.524;5.080;2024-01-11T07:04:55;11.65;;;7.43;;
66342;SDS011;53144;51.524;5.080;2024-01-11T07:07:20;12.57;;;7.10;;
66342;SDS011;53144;51.524;5.080;2024-01-11T07:09:46;9.65;;;7.07;;
66342;SDS011;53144;51.524;5.080;2024-01-11T07:12:12;12.52;;;7.78;;
66342;SDS011;53144;51.524;5.080;2024-01-11T07:14:37;9.65;;;6.47;;
66342;SDS011;53144;51.524;5.080;2024-01-11T07:17:03;12.30;;;7.22;;
66342;SDS011;53144;51.524;5.080;2024-01-11T07:19:29;11.20;;;7.28;;
66342;SDS011;53144;51.524;5.080;2024-01-11T07:21:54;12.15;;;7.32;;
66342;SDS011;53144;51.524;5.080;2024-01-11T07:24:20;11.68;;;7.22;;
66342;SDS011;53144;51.524;5.080;2024-01-11T07:26:45;11.93;;;7.10;;
66342;SDS011;53144;51.524;5.080;2024-01-11T07:29:10;12.37;;;8.00;;
66342;SDS011;53144;51.524;5.080;2024-01-11T07:31:36;11.63;;;7.63;;
66342;SDS011;53144;51.524;5.080;2024-01-11T07:34:01;9.35;;;6.85;;
66342;SDS011;53144;51.524;5.080;2024-01-11T07:36:27;14.68;;;7.80;;
66342;SDS011;53144;51.524;5.080;2024-01-11T07:38:52;12.15;;;7.70;;
66342;SDS011;53144;51.524;5.080;2024-01-11T07:41:21;12.70;;;7.63;;
66342;SDS011;53144;51.524;5.080;2024-01-11T07:43:47;8.27;;;6.55;;
66342;SDS011;53144;51.524;5.080;2024-01-11T07:46:16;12.27;;;8.80;;
66342;SDS011;53144;51.524;5.080;2024-01-11T07:48:41;9.57;;;7.53;;
66342;SDS011;53144;51.524;5.080;2024-01-11T07:51:07;11.95;;;8.35;;
66342;SDS011;53144;51.524;5.080;2024-01-11T07:53:32;15.02;;;9.02;;
66342;SDS011;53144;51.524;5.080;2024-01-11T07:55:58;15.23;;;7.72;;
66342;SDS011;53144;51.524;5.080;2024-01-11T07:58:23;14.25;;;8.85;;
66342;SDS011;53144;51.524;5.080;2024-01-11T08:00:48;10.23;;;6.97;;
66342;SDS011;53144;51.524;5.080;2024-01-11T08:03:14;14.23;;;8.45;;
66342;SDS011;53144;51.524;5.080;2024-01-11T08:05:40;13.73;;;9.07;;
66342;SDS011;53144;51.524;5.080;2024-01-11T08:08:06;12.23;;;8.40;;
66342;SDS011;53144;51.524;5.080;2024-01-11T08:10:31;12.38;;;9.45;;
66342;SDS011;53144;51.524;5.080;2024-01-11T08:12:57;16.33;;;9.50;;
66342;SDS011;53144;51.524;5.080;2024-01-11T08:15:24;15.40;;;9.20;;
66342;SDS011;53144;51.524;5.080;2024-01-11T08:17:50;11.18;;;8.60;;
66342;SDS011;53144;51.524;5.080;2024-01-11T08:20:15;11.07;;;8.55;;
66342;SDS011;53144;51.524;5.080;2024-01-11T08:22:41;7.20;;;5.07;;
66342;SDS011;53144;51.524;5.080;2024-01-11T08:25:08;11.60;;;8.70;;
66342;SDS011;53144;51.524;5.080;2024-01-11T08:27:59;12.98;;;8.98;;
66342;SDS011;53144;51.524;5.080;2024-01-11T08:30:28;12.07;;;8.73;;
66342;SDS011;53144;51.524;5.080;2024-01-11T08:32:53;16.23;;;9.57;;
66342;SDS011;53144;51.524;5.080;2024-01-11T08:35:44;14.90;;;9.25;;
66342;SDS011;53144;51.524;5.080;2024-01-11T08:38:35;10.80;;;7.88;;
66342;SDS011;53144;51.524;5.080;2024-01-11T08:41:25;9.07;;;7.15;;
66342;SDS011;53144;51.524;5.080;2024-01-11T08:44:15;12.43;;;8.15;;
66342;SDS011;53144;51.524;5.080;2024-01-11T08:46:43;10.65;;;8.25;;
66342;SDS011;53144;51.524;5.080;2024-01-11T08:49:09;14.40;;;9.40;;
66342;SDS011;53144;51.524;5.080;2024-01-11T08:51:34;15.40;;;9.60;;
66342;SDS011;53144;51.524;5.080;2024-01-11T08:54:00;12.45;;;8.50;;
66342;SDS011;53144;51.524;5.080;2024-01-11T08:56:25;12.23;;;8.48;;
66342;SDS011;53144;51.524;5.080;2024-01-11T08:58:51;5.30;;;4.80;;
66342;SDS011;53144;51.524;5.080;2024-01-11T09:01:16;16.35;;;10.48;;
66342;SDS011;53144;51.524;5.080;2024-01-11T09:03:43;15.15;;;9.73;;
66342;SDS011;53144;51.524;5.080;2024-01-11T09:06:08;15.95;;;10.15;;
66342;SDS011;53144;51.524;5.080;2024-01-11T09:08:34;9.02;;;6.35;;
66342;SDS011;53144;51.524;5.080;2024-01-11T09:11:00;8.25;;;7.00;;
66342;SDS011;53144;51.524;5.080;2024-01-11T09:13:26;14.88;;;9.85;;
66342;SDS011;53144;51.524;5.080;2024-01-11T09:15:52;14.52;;;9.45;;
66342;SDS011;53144;51.524;5.080;2024-01-11T09:18:18;12.80;;;9.15;;
66342;SDS011;53144;51.524;5.080;2024-01-11T09:20:44;12.23;;;9.25;;
66342;SDS011;53144;51.524;5.080;2024-01-11T09:23:09;14.98;;;9.23;;
66342;SDS011;53144;51.524;5.080;2024-01-11T09:32:06;14.60;;;10.13;;
66342;SDS011;53144;51.524;5.080;2024-01-11T09:34:32;14.82;;;9.20;;
66342;SDS011;53144;51.524;5.080;2024-01-11T09:36:57;14.18;;;10.02;;
66342;SDS011;53144;51.524;5.080;2024-01-11T09:39:24;18.48;;;10.55;;
66342;SDS011;53144;51.524;5.080;2024-01-11T09:41:58;7.93;;;7.15;;
66342;SDS011;53144;51.524;5.080;2024-01-11T09:44:29;14.68;;;10.52;;
66342;SDS011;53144;51.524;5.080;2024-01-11T09:46:54;13.65;;;10.27;;
66342;SDS011;53144;51.524;5.080;2024-01-11T09:51:47;7.40;;;5.85;;
66342;SDS011;53144;51.524;5.080;2024-01-11T09:54:14;14.25;;;9.43;;
66342;SDS011;53144;51.524;5.080;2024-01-11T09:56:39;16.15;;;10.20;;
66342;SDS011;53144;51.524;5.080;2024-01-11T09:59:06;13.93;;;10.73;;
66342;SDS011;53144;51.524;5.080;2024-01-11T10:01:34;12.75;;;9.63;;
66342;SDS011;53144;51.524;5.080;2024-01-11T10:04:00;15.63;;;10.07;;
66342;SDS011;53144;51.524;5.080;2024-01-11T10:06:28;19.10;;;11.75;;
66342;SDS011;53144;51.524;5.080;2024-01-11T10:08:58;20.25;;;12.25;;
66342;SDS011;53144;51.524;5.080;2024-01-11T10:11:24;20.60;;;9.05;;
66342;SDS011;53144;51.524;5.080;2024-01-11T10:13:51;20.88;;;12.10;;
66342;SDS011;53144;51.524;5.080;2024-01-11T10:16:21;13.57;;;8.98;;
66342;SDS011;53144;51.524;5.080;2024-01-11T10:18:46;19.83;;;12.20;;
66342;SDS011;53144;51.524;5.080;2024-01-11T10:21:12;21.10;;;13.20;;
66342;SDS011;53144;51.524;5.080;2024-01-11T10:23:37;20.17;;;12.10;;
66342;SDS011;53144;51.524;5.080;2024-01-11T10:26:04;21.27;;;12.98;;
